Time;durP1;ratioP1;P1;durP2;ratioP2;P2;SDS_P1;SDS_P2;PMS_P1;PMS_P2;Temp;Humidity;BMP_temperature;BMP_pressure;BME280_temperature;BME280_humidity;BME280_pressure;Samples;Min_cycle;Max_cycle;Signal;HPM_P1;HPM_P2
2022/04/21 00:01:37;;;;;;;10.80;8.67;;;11.10;63.90;;;;;;5010320;28;20496;-73
2022/04/21 00:04:05;;;;;;;9.77;8.70;;;11.00;64.10;;;;;;5000480;28;20485;-73
2022/04/21 00:06:33;;;;;;;13.03;8.63;;;11.00;64.20;;;;;;5000182;28;20449;-73
2022/04/21 00:09:01;;;;;;;11.60;9.07;;;11.00;64.30;;;;;;4999246;28;20465;-73
2022/04/21 00:11:29;;;;;;;14.60;9.20;;;10.90;64.30;;;;;;5007236;28;20460;-73
2022/04/21 00:13:57;;;;;;;11.07;9.37;;;10.90;64.30;;;;;;4998558;28;20489;-73
2022/04/21 00:16:26;;;;;;;9.90;8.33;;;10.90;64.30;;;;;;5002428;28;20917;-73
2022/04/21 00:18:54;;;;;;;13.83;9.13;;;10.90;64.40;;;;;;5001893;28;20550;-73
2022/04/21 00:23:25;;;;;;;11.03;8.80;;;10.80;64.50;;;;;;4998208;28;20551;-73
2022/04/21 00:24:10;;;;;;;12.87;10.07;;;10.80;64.50;;;;;;4994396;28;20496;-73
2022/04/21 00:26:37;;;;;;;14.50;10.30;;;10.80;64.60;;;;;;4996322;28;20465;-73
2022/04/21 00:29:05;;;;;;;15.53;9.30;;;10.70;64.60;;;;;;4994615;28;20466;-73
2022/04/21 00:31:35;;;;;;;11.80;9.80;;;10.70;64.70;;;;;;4995236;28;20554;-73
2022/04/21 00:34:03;;;;;;;12.50;9.37;;;10.70;64.80;;;;;;4996079;28;20480;-73
2022/04/21 00:36:31;;;;;;;13.10;10.10;;;10.70;64.80;;;;;;4999342;28;20467;-74
2022/04/21 00:38:59;;;;;;;18.73;13.93;;;10.70;64.80;;;;;;5000288;28;20539;-73
2022/04/21 00:41:27;;;;;;;11.50;10.10;;;10.60;64.70;;;;;;5002601;28;20996;-74
2022/04/21 00:43:54;;;;;;;12.67;10.43;;;10.50;64.60;;;;;;4997765;28;20487;-73
2022/04/21 00:46:23;;;;;;;14.63;11.57;;;10.50;64.70;;;;;;4996259;28;20481;-73
2022/04/21 00:48:53;;;;;;;17.83;13.10;;;10.40;64.80;;;;;;5000699;28;20453;-73
2022/04/21 00:51:21;;;;;;;15.73;11.97;;;10.40;65.00;;;;;;4998502;28;21026;-73
2022/04/21 00:53:49;;;;;;;14.17;11.47;;;10.40;65.20;;;;;;4996663;28;20477;-73
2022/04/21 00:56:17;;;;;;;12.50;11.10;;;10.40;65.20;;;;;;5002427;28;20453;-73
2022/04/21 00:58:47;;;;;;;20.10;11.80;;;10.40;65.30;;;;;;4996522;28;20489;-72
2022/04/21 01:03:59;;;;;;;14.03;11.20;;;10.30;65.20;;;;;;4992103;28;20496;-72
2022/04/21 01:06:27;;;;;;;15.40;12.20;;;10.30;65.20;;;;;;4993592;28;20841;-72
2022/04/21 01:08:55;;;;;;;13.97;11.50;;;10.20;65.30;;;;;;4997596;28;20468;-72
2022/04/21 01:11:24;;;;;;;16.90;11.67;;;10.20;65.50;;;;;;5001908;28;20463;-72
2022/04/21 01:13:52;;;;;;;14.90;12.10;;;10.20;65.50;;;;;;4996611;28;20500;-73
2022/04/21 01:16:21;;;;;;;13.93;11.57;;;10.30;65.50;;;;;;4998563;28;20484;-72
2022/04/21 01:18:50;;;;;;;13.97;10.37;;;10.30;65.50;;;;;;4996445;28;20482;-72
2022/04/21 01:21:20;;;;;;;15.10;10.87;;;10.30;65.50;;;;;;4995514;28;20465;-72
2022/04/21 01:23:48;;;;;;;15.23;11.90;;;10.30;65.50;;;;;;4994167;28;20477;-72
2022/04/21 01:26:18;;;;;;;14.73;10.63;;;10.20;65.40;;;;;;5001313;28;20551;-73
2022/04/21 01:28:46;;;;;;;15.80;11.40;;;10.20;65.50;;;;;;5001856;28;20519;-73
2022/04/21 01:31:14;;;;;;;14.23;11.30;;;10.20;65.50;;;;;;4997636;28;20485;-72
2022/04/21 01:33:42;;;;;;;14.73;11.10;;;10.10;65.60;;;;;;4994527;28;20556;-72
2022/04/21 01:36:10;;;;;;;15.33;11.10;;;10.20;65.70;;;;;;4994441;28;20456;-72
2022/04/21 01:41:25;;;;;;;15.33;12.50;;;10.10;65.50;;;;;;4994360;28;20468;-72
2022/04/21 01:43:52;;;;;;;15.20;11.97;;;10.10;65.50;;;;;;4993433;28;20485;-72
2022/04/21 01:46:20;;;;;;;15.37;11.80;;;10.00;65.60;;;;;;4998124;28;20493;-72
2022/04/21 01:48:48;;;;;;;14.33;12.07;;;9.90;65.70;;;;;;4994269;28;20480;-72
2022/04/21 01:51:17;;;;;;;14.43;11.73;;;9.90;65.80;;;;;;4992845;28;20940;-72
2022/04/21 01:53:46;;;;;;;14.73;12.07;;;9.90;65.90;;;;;;4997155;28;20492;-73
2022/04/21 01:56:15;;;;;;;16.80;12.63;;;10.00;66.10;;;;;;5001837;28;20536;-72
2022/04/21 01:58:45;;;;;;;12.93;11.00;;;10.00;66.10;;;;;;4996748;28;20988;-73
2022/04/21 02:01:12;;;;;;;17.40;11.80;;;10.00;66.10;;;;;;4993789;28;20890;-72
2022/04/21 02:03:40;;;;;;;16.00;12.20;;;10.00;66.10;;;;;;4996785;28;21109;-72
2022/04/21 02:06:08;;;;;;;16.83;12.90;;;10.00;66.10;;;;;;4996335;28;20453;-73
2022/04/21 02:08:36;;;;;;;13.00;11.70;;;10.00;66.20;;;;;;4998296;28;20519;-72
2022/04/21 02:11:06;;;;;;;14.63;11.57;;;10.00;66.30;;;;;;5000579;28;20456;-72
2022/04/21 02:13:33;;;;;;;12.67;10.37;;;10.00;66.40;;;;;;4991961;28;20477;-72
2022/04/21 02:16:01;;;;;;;15.70;12.40;;;10.00;66.40;;;;;;4991362;28;20573;-72
2022/04/21 02:18:29;;;;;;;15.80;12.60;;;10.00;66.40;;;;;;4992889;28;20487;-72
2022/04/21 02:20:57;;;;;;;14.97;12.10;;;10.00;66.30;;;;;;4996576;28;21179;-72
2022/04/21 02:23:25;;;;;;;16.50;11.80;;;9.90;66.30;;;;;;4992389;28;20491;-72
2022/04/21 02:25:53;;;;;;;17.50;13.27;;;9.80;66.40;;;;;;4996370;28;21047;-72
2022/04/21 02:28:23;;;;;;;18.17;12.97;;;9.80;66.40;;;;;;4997187;28;20466;-72
2022/04/21 02:30:51;;;;;;;14.90;12.10;;;9.70;66.60;;;;;;4995956;28;21013;-72
2022/04/21 02:33:20;;;;;;;18.17;13.00;;;9.70;66.80;;;;;;5010272;28;20484;-72
2022/04/21 02:35:48;;;;;;;19.87;15.30;;;9.70;66.90;;;;;;4993055;28;20457;-72
2022/04/21 02:38:16;;;;;;;18.10;14.97;;;9.70;66.90;;;;;;5008092;28;20539;-72
2022/04/21 02:40:45;;;;;;;17.67;13.27;;;9.70;66.70;;;;;;4995010;28;20446;-72
2022/04/21 02:43:13;;;;;;;18.93;13.13;;;9.60;66.70;;;;;;4996430;28;21090;-72
2022/04/21 02:45:43;;;;;;;16.40;13.17;;;9.50;66.70;;;;;;4991525;28;20477;-73
2022/04/21 02:48:11;;;;;;;15.67;13.17;;;9.40;66.90;;;;;;4989052;28;20501;-73
2022/04/21 02:50:40;;;;;;;20.30;12.90;;;9.40;67.20;;;;;;4994492;28;20456;-73
2022/04/21 02:53:08;;;;;;;17.43;12.70;;;9.40;67.30;;;;;;4994559;28;20456;-73
2022/04/21 02:58:23;;;;;;;15.53;12.50;;;9.40;67.30;;;;;;4995851;28;20468;-72
2022/04/21 03:00:52;;;;;;;16.97;13.53;;;9.40;67.30;;;;;;4996261;28;20488;-72
2022/04/21 03:03:20;;;;;;;16.40;13.77;;;9.40;67.40;;;;;;4996358;28;21241;-72
2022/04/21 03:05:48;;;;;;;16.07;13.60;;;9.40;67.40;;;;;;4993254;28;20966;-72
2022/04/21 03:08:16;;;;;;;19.00;14.03;;;9.30;67.40;;;;;;4996208;28;20461;-72
2022/04/21 03:10:44;;;;;;;19.50;15.07;;;9.30;67.40;;;;;;4996359;28;20523;-72
2022/04/21 03:13:12;;;;;;;21.10;14.63;;;9.30;67.50;;;;;;4995874;28;20519;-72
2022/04/21 03:15:40;;;;;;;19.37;15.93;;;9.30;67.50;;;;;;4993456;28;21283;-72
2022/04/21 03:18:09;;;;;;;18.40;14.90;;;9.30;67.40;;;;;;4999915;28;20456;-72
2022/04/21 03:26:14;;;;;;;17.00;12.77;;;9.10;67.50;;;;;;4994655;28;20468;-72
2022/04/21 03:28:42;;;;;;;17.23;13.87;;;9.00;67.60;;;;;;4995793;28;20461;-72
2022/04/21 03:31:10;;;;;;;15.03;13.40;;;9.00;67.70;;;;;;4994303;28;20499;-73
2022/04/21 03:33:39;;;;;;;16.20;14.07;;;9.00;68.00;;;;;;4994576;28;20998;-72
2022/04/21 03:36:07;;;;;;;17.30;13.27;;;9.00;67.90;;;;;;4999362;28;20465;-72
2022/04/21 03:38:37;;;;;;;18.37;15.37;;;9.10;67.90;;;;;;4996832;28;21233;-73
2022/04/21 03:41:05;;;;;;;19.07;15.07;;;9.10;67.90;;;;;;4994125;28;20476;-72
2022/04/21 03:43:33;;;;;;;19.40;14.67;;;9.00;67.80;;;;;;4997364;28;21053;-73
2022/04/21 03:46:01;;;;;;;19.07;14.60;;;9.00;67.90;;;;;;4996095;28;20499;-72
2022/04/21 03:48:30;;;;;;;17.70;14.90;;;9.00;68.00;;;;;;4993118;28;20973;-72
2022/04/21 03:50:59;;;;;;;17.77;14.20;;;9.00;68.00;;;;;;4992320;28;20467;-72
2022/04/21 03:53:27;;;;;;;21.93;15.97;;;8.90;68.00;;;;;;4999952;28;20484;-72
2022/04/21 03:55:55;;;;;;;16.80;13.80;;;8.90;68.00;;;;;;4993791;28;20496;-72
2022/04/21 03:58:23;;;;;;;18.30;14.70;;;8.90;68.10;;;;;;4994571;28;21216;-72
2022/04/21 04:00:51;;;;;;;19.53;15.23;;;8.80;68.10;;;;;;4992559;28;20495;-72
2022/04/21 04:03:19;;;;;;;18.87;14.83;;;8.80;68.30;;;;;;4997459;28;20495;-72
2022/04/21 04:05:47;;;;;;;20.13;15.50;;;8.70;68.40;;;;;;4992498;28;20467;-72
2022/04/21 04:11:02;;;;;;;19.77;15.80;;;8.60;68.50;;;;;;4988398;28;20449;-72
2022/04/21 04:13:30;;;;;;;20.90;16.17;;;8.50;68.80;;;;;;4994028;28;20561;-72
2022/04/21 04:15:58;;;;;;;18.77;14.73;;;8.60;68.90;;;;;;4996884;28;20485;-72
2022/04/21 04:18:26;;;;;;;21.07;15.07;;;8.60;69.00;;;;;;4994854;28;20457;-73
2022/04/21 04:20:53;;;;;;;18.83;15.67;;;8.60;69.00;;;;;;4991546;28;21063;-73
2022/04/21 04:23:23;;;;;;;20.20;15.63;;;8.70;69.00;;;;;;4993637;28;20484;-73
2022/04/21 04:25:51;;;;;;;19.80;14.67;;;8.70;69.10;;;;;;4992879;28;21058;-72
2022/04/21 04:28:19;;;;;;;17.90;14.10;;;8.70;69.20;;;;;;5001953;28;20460;-72
2022/04/21 04:30:47;;;;;;;18.03;14.13;;;8.70;69.20;;;;;;4996745;28;20473;-72
2022/04/21 04:33:16;;;;;;;19.27;14.93;;;8.80;69.30;;;;;;5003653;28;20466;-72
2022/04/21 04:35:44;;;;;;;21.20;15.23;;;8.80;69.30;;;;;;5000234;28;20587;-72
2022/04/21 04:38:14;;;;;;;17.37;14.27;;;8.80;69.40;;;;;;4998132;28;20468;-73
2022/04/21 04:40:43;;;;;;;18.43;14.67;;;8.80;69.40;;;;;;4998000;28;20559;-72
2022/04/21 04:43:10;;;;;;;19.93;14.93;;;8.90;69.50;;;;;;4997926;28;20550;-73
2022/04/21 04:48:24;;;;;;;23.87;16.20;;;8.90;69.60;;;;;;4997985;28;21353;-72
2022/04/21 04:50:51;;;;;;;18.77;15.07;;;8.90;69.60;;;;;;5000990;28;20449;-72
2022/04/21 04:53:19;;;;;;;23.43;17.33;;;8.90;69.60;;;;;;5000013;28;20512;-72
2022/04/21 04:55:49;;;;;;;24.03;16.90;;;8.90;69.60;;;;;;5001748;28;20875;-72
2022/04/21 04:58:17;;;;;;;28.70;18.13;;;8.90;69.70;;;;;;4996108;28;20997;-73
2022/04/21 05:00:47;;;;;;;22.83;18.23;;;9.00;69.80;;;;;;5000509;28;20556;-72
2022/04/21 05:03:18;;;;;;;24.37;17.07;;;9.00;69.80;;;;;;5000307;28;20464;-72
2022/04/21 05:05:46;;;;;;;19.60;16.73;;;9.00;69.80;;;;;;4999882;28;21110;-72
2022/04/21 05:08:13;;;;;;;20.67;16.63;;;9.00;69.90;;;;;;4998937;28;21223;-72
2022/04/21 05:10:41;;;;;;;22.53;16.73;;;9.00;70.10;;;;;;4997171;28;20456;-72
2022/04/21 05:13:11;;;;;;;22.30;15.93;;;9.10;70.10;;;;;;4995839;28;20461;-72
2022/04/21 05:15:39;;;;;;;22.27;16.13;;;9.10;70.20;;;;;;4992899;28;20476;-72
2022/04/21 05:18:08;;;;;;;42.63;31.77;;;9.20;70.30;;;;;;4995500;28;20476;-73
2022/04/21 05:20:37;;;;;;;51.90;35.70;;;9.30;70.30;;;;;;4994219;28;20523;-72
2022/04/21 05:23:06;;;;;;;37.43;25.47;;;9.40;70.50;;;;;;4989556;28;20990;-72
2022/04/21 05:25:36;;;;;;;27.10;20.37;;;9.60;70.60;;;;;;4992689;28;20469;-72
2022/04/21 05:28:06;;;;;;;24.87;19.50;;;9.80;71.80;;;;;;4992181;28;20464;-72
2022/04/21 05:33:24;;;;;;;28.50;20.17;;;10.50;70.50;;;;;;4997205;28;20507;-72
2022/04/21 05:35:53;;;;;;;24.63;19.10;;;10.50;69.80;;;;;;4995503;28;20649;-72
2022/04/21 05:38:21;;;;;;;27.53;19.80;;;10.40;69.60;;;;;;4994720;28;20526;-72
2022/04/21 05:40:50;;;;;;;27.23;20.73;;;10.30;69.60;;;;;;4991583;28;20516;-72
2022/04/21 05:43:20;;;;;;;30.83;17.60;;;10.20;69.70;;;;;;4993474;28;20843;-72
2022/04/21 05:45:50;;;;;;;26.60;18.37;;;10.20;69.80;;;;;;4992041;28;20481;-73
2022/04/21 05:48:18;;;;;;;27.70;19.67;;;10.20;69.90;;;;;;4986125;28;22287;-72
2022/04/21 05:50:48;;;;;;;32.50;23.80;;;10.20;70.10;;;;;;4994441;28;20466;-73
2022/04/21 05:53:22;;;;;;;29.33;22.53;;;10.20;70.30;;;;;;4994901;28;20461;-74
2022/04/21 05:55:53;;;;;;;34.70;22.07;;;10.30;70.30;;;;;;4994411;28;21135;-73
2022/04/21 05:58:23;;;;;;;29.10;21.10;;;10.30;70.40;;;;;;4992012;28;20453;-74
2022/04/21 06:00:53;;;;;;;28.50;20.27;;;10.40;70.40;;;;;;4992051;28;20489;-73
2022/04/21 06:03:27;;;;;;;25.07;20.13;;;10.40;70.40;;;;;;4995955;28;21049;-73
2022/04/21 06:05:55;;;;;;;23.90;19.13;;;10.40;70.30;;;;;;4995840;28;20453;-74
2022/04/21 06:08:24;;;;;;;25.03;19.03;;;10.40;70.50;;;;;;4997859;28;20460;-74
2022/04/21 06:10:52;;;;;;;44.57;26.80;;;10.50;70.50;;;;;;4997271;28;20453;-74
2022/04/21 06:13:21;;;;;;;40.73;22.23;;;10.50;70.50;;;;;;4999815;28;20492;-74
2022/04/21 06:15:48;;;;;;;29.43;18.87;;;10.50;70.60;;;;;;4998388;28;20484;-74
2022/04/21 06:18:18;;;;;;;27.30;19.73;;;10.60;70.60;;;;;;4998486;28;21240;-74
2022/04/21 06:20:47;;;;;;;26.23;20.77;;;10.70;70.70;;;;;;4995517;28;20485;-74
2022/04/21 06:23:15;;;;;;;28.93;23.30;;;10.80;70.80;;;;;;4996471;28;20454;-74
2022/04/21 06:25:43;;;;;;;34.40;24.67;;;10.90;70.80;;;;;;4994628;28;20859;-74
2022/04/21 06:28:13;;;;;;;35.03;23.67;;;11.00;70.80;;;;;;4994912;28;20477;-74
2022/04/21 06:30:41;;;;;;;29.80;21.67;;;11.00;70.70;;;;;;4992223;28;20473;-74
2022/04/21 06:33:14;;;;;;;27.87;20.80;;;11.10;70.70;;;;;;4995516;28;20466;-74
2022/04/21 06:35:44;;;;;;;29.20;20.87;;;11.10;70.70;;;;;;4995491;28;20523;-75
2022/04/21 06:38:13;;;;;;;26.77;21.27;;;11.10;70.80;;;;;;4995882;28;21158;-74
2022/04/21 06:40:41;;;;;;;21.27;18.37;;;11.20;70.70;;;;;;4998552;28;20484;-74
2022/04/21 06:48:37;;;;;;;21.57;15.23;;;11.20;70.40;;;;;;4994264;28;20461;-74
2022/04/21 06:51:06;;;;;;;20.67;15.37;;;11.10;70.30;;;;;;5002342;28;20460;-75
2022/04/21 06:53:34;;;;;;;21.80;15.40;;;11.10;70.40;;;;;;4993581;28;20488;-74
2022/04/21 06:56:04;;;;;;;17.20;13.50;;;11.10;70.50;;;;;;4998637;28;21135;-74
2022/04/21 06:58:32;;;;;;;24.50;15.50;;;11.00;70.50;;;;;;4997368;28;20468;-74
2022/04/21 07:01:00;;;;;;;21.13;13.87;;;11.10;70.60;;;;;;4994000;28;20481;-74
2022/04/21 07:03:28;;;;;;;18.40;13.27;;;11.10;70.50;;;;;;4997088;28;20488;-74
2022/04/21 07:05:56;;;;;;;18.03;13.20;;;11.20;70.50;;;;;;4996547;28;20498;-74
2022/04/21 07:08:26;;;;;;;21.40;13.30;;;11.20;70.50;;;;;;4999945;28;20460;-75
2022/04/21 07:10:54;;;;;;;18.97;13.60;;;11.30;70.30;;;;;;4995192;28;21236;-74
2022/04/21 07:13:22;;;;;;;21.90;15.33;;;11.40;70.30;;;;;;4997110;28;20592;-74
2022/04/21 07:15:50;;;;;;;19.23;14.27;;;11.40;70.10;;;;;;4998023;28;20483;-74
2022/04/21 07:18:18;;;;;;;19.87;13.80;;;11.40;70.00;;;;;;4999471;28;20923;-74
2022/04/21 07:20:47;;;;;;;17.93;13.10;;;11.40;70.10;;;;;;5001289;28;21263;-75
2022/04/21 07:23:15;;;;;;;19.03;14.93;;;11.50;70.10;;;;;;4997810;28;20459;-75
2022/04/21 07:25:44;;;;;;;15.90;12.93;;;11.50;69.90;;;;;;4994401;28;20973;-74
2022/04/21 07:28:12;;;;;;;17.43;13.20;;;11.50;69.60;;;;;;4997988;28;20468;-74
2022/04/21 07:30:40;;;;;;;18.93;12.30;;;11.50;69.80;;;;;;4990927;28;20461;-74
2022/04/21 07:33:09;;;;;;;17.87;12.13;;;11.50;69.50;;;;;;4995286;28;20547;-74
2022/04/21 07:35:37;;;;;;;18.27;12.63;;;11.50;69.60;;;;;;5002601;28;20802;-75
2022/04/21 07:38:05;;;;;;;17.00;12.07;;;11.50;69.70;;;;;;4991702;28;20536;-74
2022/04/21 07:40:35;;;;;;;19.23;12.17;;;11.50;69.70;;;;;;4992441;28;20541;-75
2022/04/21 07:43:08;;;;;;;16.07;11.97;;;11.60;69.80;;;;;;4993995;28;20781;-75
2022/04/21 07:45:38;;;;;;;19.37;11.50;;;11.60;69.70;;;;;;4991403;28;20557;-75
2022/04/21 07:48:07;;;;;;;18.10;11.63;;;11.70;69.80;;;;;;4997744;28;20467;-75
2022/04/21 07:50:36;;;;;;;17.13;11.27;;;11.90;69.80;;;;;;5000743;28;20456;-74
2022/04/21 07:53:22;;;;;;;12.63;9.23;;;12.00;69.60;;;;;;4998669;28;20473;-74
2022/04/21 07:55:51;;;;;;;14.73;10.57;;;12.00;69.30;;;;;;4995376;28;20555;-75
2022/04/21 07:58:26;;;;;;;19.57;10.23;;;12.10;69.20;;;;;;4995680;28;20457;-75
2022/04/21 08:00:55;;;;;;;17.93;10.17;;;12.20;69.00;;;;;;4994952;28;20547;-75
2022/04/21 08:03:23;;;;;;;15.03;9.30;;;12.30;68.70;;;;;;4998328;28;20481;-74
2022/04/21 08:05:51;;;;;;;16.20;9.33;;;12.40;69.00;;;;;;4996487;28;20453;-73
2022/04/21 08:08:19;;;;;;;13.33;9.10;;;12.40;68.40;;;;;;5002270;28;20534;-73
2022/04/21 08:10:47;;;;;;;15.50;9.80;;;12.50;67.90;;;;;;4999218;28;20453;-73
2022/04/21 08:13:19;;;;;;;16.20;10.10;;;12.50;67.90;;;;;;4997400;28;20438;-74
2022/04/21 08:15:50;;;;;;;16.50;10.40;;;12.60;67.90;;;;;;4999613;28;20473;-74
2022/04/21 08:18:18;;;;;;;14.50;10.30;;;12.60;67.70;;;;;;4998165;28;20559;-74
2022/04/21 08:20:47;;;;;;;14.97;10.33;;;12.60;67.60;;;;;;5000046;28;20453;-75
2022/04/21 08:23:16;;;;;;;12.57;9.40;;;12.60;67.50;;;;;;4999485;28;22256;-74
2022/04/21 08:34:38;;;;;;;12.77;9.50;;;12.70;66.90;;;;;;4997087;28;21006;-74
2022/04/21 08:37:07;;;;;;;12.93;8.80;;;12.70;66.80;;;;;;4996500;28;20564;-74
2022/04/21 08:39:35;;;;;;;15.67;9.63;;;12.70;66.70;;;;;;4996588;28;20465;-74
2022/04/21 08:42:10;;;;;;;16.53;9.77;;;12.80;66.70;;;;;;4991705;28;20568;-74
2022/04/21 08:44:43;;;;;;;12.27;8.80;;;12.80;66.70;;;;;;4993019;28;20575;-74
2022/04/21 08:47:14;;;;;;;12.03;8.73;;;12.80;66.50;;;;;;4995557;28;20493;-75
2022/04/21 08:49:47;;;;;;;12.83;8.63;;;12.80;66.50;;;;;;4996793;28;20552;-74
2022/04/21 08:52:17;;;;;;;16.53;10.80;;;12.80;66.30;;;;;;4995663;28;20989;-75
2022/04/21 08:54:45;;;;;;;18.00;12.47;;;12.90;66.30;;;;;;4990786;28;20493;-74
2022/04/21 08:57:13;;;;;;;12.77;8.80;;;12.90;66.20;;;;;;4992602;28;20816;-75
2022/04/21 08:59:41;;;;;;;11.60;7.70;;;13.00;66.00;;;;;;5002906;28;20457;-74
2022/04/21 09:02:09;;;;;;;14.97;8.87;;;13.00;65.90;;;;;;4997962;28;20492;-75
2022/04/21 09:04:41;;;;;;;14.17;9.13;;;13.10;65.90;;;;;;4999504;28;20487;-74
2022/04/21 09:07:15;;;;;;;13.80;8.73;;;13.10;66.00;;;;;;4998740;28;20456;-74
2022/04/21 09:10:01;;;;;;;13.70;8.70;;;13.20;66.00;;;;;;4994131;28;20480;-74
2022/04/21 09:12:29;;;;;;;12.80;8.90;;;13.30;65.90;;;;;;4991543;28;20499;-75
2022/04/21 09:14:58;;;;;;;10.93;7.33;;;13.40;65.70;;;;;;4994554;28;20477;-73
2022/04/21 09:17:25;;;;;;;11.23;7.40;;;13.40;65.40;;;;;;4998465;28;20504;-74
2022/04/21 09:19:59;;;;;;;12.63;7.57;;;13.50;65.20;;;;;;4995472;28;20883;-74
2022/04/21 09:22:33;;;;;;;13.67;7.90;;;13.50;65.00;;;;;;4996432;28;20487;-74
2022/04/21 09:25:01;;;;;;;13.43;9.10;;;13.50;64.70;;;;;;4999045;28;20487;-74
2022/04/21 09:27:40;;;;;;;12.40;8.63;;;13.50;64.80;;;;;;4994499;28;20863;-74
2022/04/21 09:30:10;;;;;;;11.80;8.10;;;13.50;64.60;;;;;;4996940;28;20489;-74
2022/04/21 09:32:39;;;;;;;13.10;7.97;;;13.50;64.20;;;;;;4991838;28;20445;-74
2022/04/21 09:35:10;;;;;;;15.30;7.67;;;13.50;64.20;;;;;;4999752;28;20487;-75
2022/04/21 09:37:52;;;;;;;12.03;7.50;;;13.50;64.20;;;;;;4995480;28;21392;-75
2022/04/21 09:40:22;;;;;;;19.40;11.90;;;13.50;64.20;;;;;;4993458;28;20551;-74
2022/04/21 09:42:57;;;;;;;27.73;15.27;;;13.50;63.90;;;;;;4998500;28;20480;-74
2022/04/21 09:48:23;;;;;;;18.70;9.33;;;13.40;63.90;;;;;;4999806;28;20464;-74
2022/04/21 09:50:55;;;;;;;17.63;10.20;;;13.40;64.00;;;;;;4996741;28;20455;-74
2022/04/21 09:53:24;;;;;;;17.27;9.93;;;13.40;63.90;;;;;;4999599;28;20534;-74
2022/04/21 09:55:53;;;;;;;13.90;7.30;;;13.50;64.00;;;;;;4998083;28;20457;-74
2022/04/21 09:58:21;;;;;;;11.00;7.80;;;13.50;64.00;;;;;;5001660;28;20472;-74
2022/04/21 10:00:49;;;;;;;14.97;10.20;;;13.60;63.90;;;;;;5000491;28;20528;-74
2022/04/21 10:03:18;;;;;;;12.97;8.40;;;13.50;63.80;;;;;;5001124;28;20477;-74
2022/04/21 10:05:46;;;;;;;12.70;8.60;;;13.60;63.90;;;;;;4998033;28;20538;-73
2022/04/21 10:08:16;;;;;;;20.57;12.07;;;13.60;63.90;;;;;;4993168;28;20465;-73
2022/04/21 10:10:50;;;;;;;17.43;10.37;;;13.70;63.80;;;;;;4993575;28;20490;-73
2022/04/21 10:13:19;;;;;;;11.47;7.47;;;13.80;63.70;;;;;;4997433;28;20475;-75
2022/04/21 10:15:47;;;;;;;17.53;10.60;;;13.80;63.50;;;;;;4998911;28;20481;-73
2022/04/21 10:18:16;;;;;;;9.90;6.87;;;13.80;63.40;;;;;;4996384;28;20457;-73
2022/04/21 10:20:45;;;;;;;9.30;6.87;;;13.80;63.30;;;;;;4997518;28;20462;-73
2022/04/21 10:23:18;;;;;;;11.50;8.10;;;13.90;63.20;;;;;;4998177;28;20472;-73
2022/04/21 10:25:58;;;;;;;11.60;7.50;;;13.90;63.10;;;;;;4993304;28;20471;-74
2022/04/21 10:28:41;;;;;;;10.50;7.10;;;13.90;63.00;;;;;;4996864;28;20453;-74
2022/04/21 10:31:31;;;;;;;10.60;7.67;;;13.90;63.00;;;;;;4998744;28;20481;-74
2022/04/21 10:34:01;;;;;;;19.20;8.93;;;13.90;63.10;;;;;;4993344;28;20489;-74
2022/04/21 10:36:42;;;;;;;15.23;8.63;;;13.90;63.10;;;;;;4981483;28;20484;-75
2022/04/21 10:39:30;;;;;;;12.57;9.60;;;14.00;63.20;;;;;;4996607;28;20505;-74
2022/04/21 10:42:18;;;;;;;10.00;6.77;;;14.10;63.00;;;;;;4998756;28;20483;-75
2022/04/21 10:44:48;;;;;;;12.00;7.33;;;14.10;62.90;;;;;;4995564;28;20495;-75
2022/04/21 10:47:30;;;;;;;12.67;9.13;;;14.20;62.90;;;;;;4973069;28;20490;-73
2022/04/21 10:50:00;;;;;;;10.53;5.97;;;14.30;62.70;;;;;;4997772;28;21067;-73
2022/04/21 10:58:52;;;;;;;18.13;10.50;;;14.50;62.50;;;;;;5006454;28;20467;-74
2022/04/21 11:01:28;;;;;;;15.93;9.13;;;14.50;62.10;;;;;;4991485;28;20848;-73
2022/04/21 11:04:10;;;;;;;11.70;7.23;;;14.50;61.90;;;;;;4994809;28;20576;-73
2022/04/21 11:06:40;;;;;;;13.60;7.70;;;14.50;61.90;;;;;;4994784;28;20457;-73
2022/04/21 11:09:09;;;;;;;11.90;7.33;;;14.50;61.80;;;;;;4995786;28;20459;-74
2022/04/21 11:11:47;;;;;;;14.90;8.70;;;14.50;61.90;;;;;;4996314;28;20793;-74
2022/04/21 11:14:31;;;;;;;10.53;6.97;;;14.50;61.70;;;;;;5000052;28;20488;-74
2022/04/21 11:17:00;;;;;;;14.20;8.23;;;14.50;61.90;;;;;;4994112;28;21527;-73
2022/04/21 11:19:40;;;;;;;13.63;7.90;;;14.60;61.90;;;;;;4997864;28;20456;-75
2022/04/21 11:22:09;;;;;;;9.83;6.33;;;14.60;61.90;;;;;;4991732;28;20463;-74
2022/04/21 11:25:05;;;;;;;12.50;7.37;;;14.60;61.90;;;;;;4990073;28;20489;-74
2022/04/21 11:27:42;;;;;;;12.13;7.50;;;14.60;61.80;;;;;;4988893;28;20450;-76
2022/04/21 11:30:13;;;;;;;7.13;5.27;;;14.60;61.80;;;;;;4996096;28;20451;-75
2022/04/21 11:32:50;;;;;;;9.03;5.97;;;14.60;61.80;;;;;;4994787;28;20492;-75
2022/04/21 11:35:18;;;;;;;9.30;5.13;;;14.70;61.60;;;;;;4995447;28;21168;-75
2022/04/21 11:37:55;;;;;;;10.33;4.70;;;14.70;61.70;;;;;;5000496;28;20527;-75
2022/04/21 11:40:32;;;;;;;7.53;4.37;;;14.80;61.60;;;;;;5001687;28;21282;-75
2022/04/21 11:43:04;;;;;;;10.00;5.90;;;14.80;61.70;;;;;;5001978;28;20607;-74
2022/04/21 11:45:36;;;;;;;9.33;5.80;;;14.90;61.80;;;;;;4998857;28;20484;-74
2022/04/21 11:48:12;;;;;;;7.80;5.20;;;14.90;61.90;;;;;;5000749;28;20441;-74
2022/04/21 11:50:44;;;;;;;9.60;5.93;;;15.00;61.70;;;;;;4996974;28;21001;-74
2022/04/21 11:53:17;;;;;;;10.47;5.33;;;15.10;61.70;;;;;;5000130;28;20480;-75
2022/04/21 11:55:46;;;;;;;9.37;6.33;;;15.10;61.70;;;;;;4992637;28;20461;-75
2022/04/21 11:58:26;;;;;;;11.80;6.00;;;15.20;61.60;;;;;;4997860;28;20461;-75
2022/04/21 12:06:37;;;;;;;7.63;5.83;;;15.20;61.50;;;;;;5001735;28;20935;-74
2022/04/21 12:09:05;;;;;;;9.20;5.60;;;15.20;61.60;;;;;;5001804;28;20469;-74
2022/04/21 12:11:34;;;;;;;8.37;5.60;;;15.30;61.80;;;;;;4991793;28;20458;-75
2022/04/21 12:14:04;;;;;;;11.63;5.47;;;15.40;61.40;;;;;;5008080;28;20864;-75
2022/04/21 12:16:39;;;;;;;9.90;5.17;;;15.40;61.30;;;;;;5005393;28;20936;-75
2022/04/21 12:19:15;;;;;;;8.00;5.97;;;15.50;61.20;;;;;;5003655;28;20444;-77
2022/04/21 12:21:44;;;;;;;8.93;4.73;;;15.40;61.20;;;;;;4997022;28;20449;-76
2022/04/21 12:24:15;;;;;;;8.77;6.13;;;15.40;61.10;;;;;;5000190;28;20665;-74
2022/04/21 12:26:50;;;;;;;9.17;5.37;;;15.30;60.80;;;;;;4999038;28;20468;-74
2022/04/21 12:29:21;;;;;;;8.97;5.10;;;15.30;61.20;;;;;;5000869;28;20974;-74
2022/04/21 12:31:50;;;;;;;8.03;5.07;;;15.40;61.00;;;;;;4994339;28;20484;-74
2022/04/21 12:34:23;;;;;;;8.87;5.63;;;15.40;61.10;;;;;;4999458;28;20579;-74
2022/04/21 12:36:53;;;;;;;7.37;5.10;;;15.40;61.00;;;;;;4998495;28;20477;-74
2022/04/21 12:39:21;;;;;;;9.43;6.07;;;15.50;60.90;;;;;;4998995;28;20546;-74
2022/04/21 12:42:10;;;;;;;9.67;5.63;;;15.40;60.80;;;;;;5001403;28;20615;-75
2022/04/21 12:44:42;;;;;;;9.60;6.10;;;15.40;60.90;;;;;;4999471;28;20493;-75
2022/04/21 12:47:15;;;;;;;7.37;4.53;;;15.40;61.00;;;;;;4996764;28;21017;-76
2022/04/21 12:49:57;;;;;;;9.50;5.03;;;15.50;61.00;;;;;;5000470;28;20471;-74
2022/04/21 12:52:34;;;;;;;6.30;4.47;;;15.50;60.90;;;;;;4997212;28;20464;-75
2022/04/21 12:55:04;;;;;;;9.50;4.33;;;15.50;60.70;;;;;;5001514;28;20490;-74
2022/04/21 12:57:32;;;;;;;6.47;4.43;;;15.60;60.40;;;;;;4994260;28;20453;-74
2022/04/21 13:00:03;;;;;;;7.60;4.90;;;15.50;60.40;;;;;;4993735;28;20476;-76
2022/04/21 13:02:31;;;;;;;8.77;5.60;;;15.60;60.30;;;;;;4996096;28;20481;-75
2022/04/21 13:05:00;;;;;;;8.10;5.53;;;15.60;60.40;;;;;;4997815;28;20480;-75
2022/04/21 13:07:29;;;;;;;9.10;5.23;;;15.60;60.50;;;;;;4994839;28;20480;-75
2022/04/21 13:09:58;;;;;;;11.67;5.93;;;15.60;60.60;;;;;;4995573;28;20483;-76
2022/04/21 13:12:26;;;;;;;9.97;4.53;;;15.60;60.80;;;;;;4996290;28;20461;-75
2022/04/21 13:14:54;;;;;;;10.17;5.30;;;15.70;60.60;;;;;;4998820;28;20854;-75
2022/04/21 13:17:23;;;;;;;8.33;5.33;;;15.80;60.60;;;;;;5005655;28;20483;-75
2022/04/21 13:19:51;;;;;;;7.37;4.10;;;15.80;60.40;;;;;;5001045;28;20510;-75
2022/04/21 13:22:19;;;;;;;10.77;6.20;;;15.90;60.40;;;;;;4995723;28;20539;-75
2022/04/21 13:24:47;;;;;;;9.40;4.80;;;16.00;60.00;;;;;;4997505;28;20497;-75
2022/04/21 13:27:22;;;;;;;11.37;6.07;;;16.00;59.50;;;;;;4996787;28;20458;-74
2022/04/21 13:29:50;;;;;;;11.33;6.17;;;16.00;59.40;;;;;;4996257;28;20958;-75
2022/04/21 13:35:07;;;;;;;6.17;3.33;;;16.20;59.40;;;;;;4996903;28;20481;-74
2022/04/21 13:37:34;;;;;;;7.87;4.87;;;16.30;59.20;;;;;;4992591;28;20469;-75
2022/04/21 13:40:03;;;;;;;11.27;6.53;;;16.40;59.20;;;;;;4996907;28;20469;-75
2022/04/21 13:42:31;;;;;;;8.83;4.13;;;16.40;58.90;;;;;;4997380;28;20461;-74
2022/04/21 13:44:59;;;;;;;9.20;3.90;;;16.50;58.90;;;;;;4999506;28;21093;-74